sensor_id;sensor_type;location;lat;lon;timestamp;temperature;humidity
52481;DHT22;38393;52.404;13.532;2024-01-06T00:01:20;2.30;99.90
52481;DHT22;38393;52.404;13.532;2024-01-06T00:03:46;2.20;99.90
52481;DHT22;38393;52.404;13.532;2024-01-06T00:06:12;2.10;99.90
52481;DHT22;38393;52.404;13.532;2024-01-06T00:08:38;2.20;99.90
52481;DHT22;38393;52.404;13.532;2024-01-06T00:11:03;2.30;99.90
52481;DHT22;38393;52.404;13.532;2024-01-06T00:13:29;2.20;99.90
52481;DHT22;38393;52.404;13.532;2024-01-06T00:15:55;2.20;99.90
52481;DHT22;38393;52.404;13.532;2024-01-06T00:18:20;2.20;99.90
52481;DHT22;38393;52.404;13.532;2024-01-06T00:20:46;2.30;99.90
52481;DHT22;38393;52.404;13.532;2024-01-06T00:23:11;2.30;99.90
52481;DHT22;38393;52.404;13.532;2024-01-06T00:25:36;2.20;99.90
52481;DHT22;38393;52.404;13.532;2024-01-06T00:28:02;2.10;99.90
52481;DHT22;38393;52.404;13.532;2024-01-06T00:30:28;2.00;99.90
52481;DHT22;38393;52.404;13.532;2024-01-06T00:32:53;2.20;99.90
52481;DHT22;38393;52.404;13.532;2024-01-06T00:35:19;2.10;99.90
52481;DHT22;38393;52.404;13.532;2024-01-06T00:37:44;2.40;99.90
52481;DHT22;38393;52.404;13.532;2024-01-06T00:40:10;2.50;99.90
52481;DHT22;38393;52.404;13.532;2024-01-06T00:42:35;2.30;99.90
52481;DHT22;38393;52.404;13.532;2024-01-06T00:45:01;2.20;99.90
52481;DHT22;38393;52.404;13.532;2024-01-06T00:47:26;2.30;99.90
52481;DHT22;38393;52.404;13.532;2024-01-06T00:49:52;2.40;99.90
52481;DHT22;38393;52.404;13.532;2024-01-06T00:52:17;2.30;99.90
52481;DHT22;38393;52.404;13.532;2024-01-06T00:54:43;2.20;99.90
52481;DHT22;38393;52.404;13.532;2024-01-06T00:57:08;2.20;99.90
52481;DHT22;38393;52.404;13.532;2024-01-06T00:59:34;2.20;99.90
52481;DHT22;38393;52.404;13.532;2024-01-06T01:01:59;2.10;99.90
52481;DHT22;38393;52.404;13.532;2024-01-06T01:04:25;2.20;99.90
52481;DHT22;38393;52.404;13.532;2024-01-06T01:06:50;2.20;99.90
52481;DHT22;38393;52.404;13.532;2024-01-06T01:09:16;2.20;99.90
52481;DHT22;38393;52.404;13.532;2024-01-06T01:11:41;2.20;99.90
52481;DHT22;38393;52.404;13.532;2024-01-06T01:14:07;2.20;99.90
52481;DHT22;38393;52.404;13.532;2024-01-06T01:16:32;2.20;99.90
52481;DHT22;38393;52.404;13.532;2024-01-06T01:18:58;2.30;99.90
52481;DHT22;38393;52.404;13.532;2024-01-06T01:21:24;2.30;99.90
52481;DHT22;38393;52.404;13.532;2024-01-06T01:23:49;2.20;99.90
52481;DHT22;38393;52.404;13.532;2024-01-06T01:26:15;2.10;99.90
52481;DHT22;38393;52.404;13.532;2024-01-06T01:28:40;2.10;99.90
52481;DHT22;38393;52.404;13.532;2024-01-06T01:31:06;2.10;99.90
52481;DHT22;38393;52.404;13.532;2024-01-06T01:33:31;2.20;99.90
52481;DHT22;38393;52.404;13.532;2024-01-06T01:35:57;2.10;99.90
52481;DHT22;38393;52.404;13.532;2024-01-06T01:38:22;2.10;99.90
52481;DHT22;38393;52.404;13.532;2024-01-06T01:40:48;2.20;99.90
52481;DHT22;38393;52.404;13.532;2024-01-06T01:43:18;2.20;99.90
52481;DHT22;38393;52.404;13.532;2024-01-06T01:45:43;2.20;99.90
52481;DHT22;38393;52.404;13.532;2024-01-06T01:48:09;2.10;99.90
52481;DHT22;38393;52.404;13.532;2024-01-06T01:50:34;2.10;99.90
52481;DHT22;38393;52.404;13.532;2024-01-06T01:53:00;2.10;99.90
52481;DHT22;38393;52.404;13.532;2024-01-06T01:55:26;2.10;99.90
52481;DHT22;38393;52.404;13.532;2024-01-06T01:57:52;2.10;99.90
52481;DHT22;38393;52.404;13.532;2024-01-06T02:00:18;2.30;99.90
52481;DHT22;38393;52.404;13.532;2024-01-06T02:02:43;2.30;99.90
52481;DHT22;38393;52.404;13.532;2024-01-06T02:05:09;2.20;99.90
52481;DHT22;38393;52.404;13.532;2024-01-06T02:07:35;2.20;99.90
52481;DHT22;38393;52.404;13.532;2024-01-06T02:10:00;2.30;99.90
52481;DHT22;38393;52.404;13.532;2024-01-06T02:12:26;2.30;99.90
52481;DHT22;38393;52.404;13.532;2024-01-06T02:14:51;2.20;99.90
52481;DHT22;38393;52.404;13.532;2024-01-06T02:17:17;2.00;99.90
52481;DHT22;38393;52.404;13.532;2024-01-06T02:19:42;2.00;99.90
52481;DHT22;38393;52.404;13.532;2024-01-06T02:22:08;2.00;99.90
52481;DHT22;38393;52.404;13.532;2024-01-06T02:24:33;2.00;99.90
52481;DHT22;38393;52.404;13.532;2024-01-06T02:26:59;2.10;99.90
52481;DHT22;38393;52.404;13.532;2024-01-06T02:29:24;2.10;99.90
52481;DHT22;38393;52.404;13.532;2024-01-06T02:31:50;2.30;99.90
52481;DHT22;38393;52.404;13.532;2024-01-06T02:34:15;2.20;99.90
52481;DHT22;38393;52.404;13.532;2024-01-06T02:36:41;2.30;99.90
52481;DHT22;38393;52.404;13.532;2024-01-06T02:39:06;2.20;99.90
52481;DHT22;38393;52.404;13.532;2024-01-06T02:41:32;2.30;99.90
52481;DHT22;38393;52.404;13.532;2024-01-06T02:43:57;2.10;99.90
52481;DHT22;38393;52.404;13.532;2024-01-06T02:46:23;2.10;99.90
52481;DHT22;38393;52.404;13.532;2024-01-06T02:48:48;2.10;99.90
52481;DHT22;38393;52.404;13.532;2024-01-06T02:51:14;2.10;99.90
52481;DHT22;38393;52.404;13.532;2024-01-06T02:53:39;2.20;99.90
52481;DHT22;38393;52.404;13.532;2024-01-06T02:56:10;2.10;99.90
52481;DHT22;38393;52.404;13.532;2024-01-06T02:58:35;2.00;99.90
52481;DHT22;38393;52.404;13.532;2024-01-06T03:01:00;2.10;99.90
52481;DHT22;38393;52.404;13.532;2024-01-06T03:03:26;2.00;99.90
52481;DHT22;38393;52.404;13.532;2024-01-06T03:05:51;2.20;99.90
52481;DHT22;38393;52.404;13.532;2024-01-06T03:08:17;2.10;99.90
52481;DHT22;38393;52.404;13.532;2024-01-06T03:10:43;2.00;99.90
52481;DHT22;38393;52.404;13.532;2024-01-06T03:13:08;2.00;99.90
52481;DHT22;38393;52.404;13.532;2024-01-06T03:15:34;2.30;99.90
52481;DHT22;38393;52.404;13.532;2024-01-06T03:17:59;2.30;99.90
52481;DHT22;38393;52.404;13.532;2024-01-06T03:20:25;2.20;99.90
52481;DHT22;38393;52.404;13.532;2024-01-06T03:22:50;2.10;99.90
52481;DHT22;38393;52.404;13.532;2024-01-06T03:25:15;2.20;99.90
52481;DHT22;38393;52.404;13.532;2024-01-06T03:27:41;2.10;99.90
52481;DHT22;38393;52.404;13.532;2024-01-06T03:30:07;2.00;99.90
52481;DHT22;38393;52.404;13.532;2024-01-06T03:32:32;2.00;99.90
52481;DHT22;38393;52.404;13.532;2024-01-06T03:34:58;2.10;99.90
52481;DHT22;38393;52.404;13.532;2024-01-06T03:37:24;2.00;99.90
52481;DHT22;38393;52.404;13.532;2024-01-06T03:39:49;2.20;99.90
52481;DHT22;38393;52.404;13.532;2024-01-06T03:42:15;2.20;99.90
52481;DHT22;38393;52.404;13.532;2024-01-06T03:44:40;2.20;99.90
52481;DHT22;38393;52.404;13.532;2024-01-06T03:47:06;2.00;99.90
52481;DHT22;38393;52.404;13.532;2024-01-06T03:49:31;2.00;99.90
52481;DHT22;38393;52.404;13.532;2024-01-06T03:51:57;2.00;99.90
52481;DHT22;38393;52.404;13.532;2024-01-06T03:54:22;2.10;99.90
52481;DHT22;38393;52.404;13.532;2024-01-06T03:56:48;2.10;99.90
52481;DHT22;38393;52.404;13.532;2024-01-06T03:59:13;1.90;99.90
52481;DHT22;38393;52.404;13.532;2024-01-06T04:01:38;1.90;99.90
52481;DHT22;38393;52.404;13.532;2024-01-06T04:04:05;2.00;99.90
52481;DHT22;38393;52.404;13.532;2024-01-06T04:06:31;1.90;99.90
52481;DHT22;38393;52.404;13.532;2024-01-06T04:09:00;2.00;99.90
52481;DHT22;38393;52.404;13.532;2024-01-06T04:11:26;2.00;99.90
52481;DHT22;38393;52.404;13.532;2024-01-06T04:13:51;2.00;99.90
52481;DHT22;38393;52.404;13.532;2024-01-06T04:16:17;2.10;99.90
52481;DHT22;38393;52.404;13.532;2024-01-06T04:18:42;2.10;99.90
52481;DHT22;38393;52.404;13.532;2024-01-06T04:21:08;1.80;99.90
52481;DHT22;38393;52.404;13.532;2024-01-06T04:23:34;2.00;99.90
52481;DHT22;38393;52.404;13.532;2024-01-06T04:26:00;2.10;99.90
52481;DHT22;38393;52.404;13.532;2024-01-06T04:28:26;2.20;99.90
52481;DHT22;38393;52.404;13.532;2024-01-06T04:30:52;2.10;99.90
52481;DHT22;38393;52.404;13.532;2024-01-06T04:33:17;2.10;99.90
52481;DHT22;38393;52.404;13.532;2024-01-06T04:35:43;2.10;99.90
52481;DHT22;38393;52.404;13.532;2024-01-06T04:38:08;1.90;99.90
52481;DHT22;38393;52.404;13.532;2024-01-06T04:40:34;2.00;99.90
52481;DHT22;38393;52.404;13.532;2024-01-06T04:43:00;1.90;99.90
52481;DHT22;38393;52.404;13.532;2024-01-06T04:45:26;1.90;99.90
52481;DHT22;38393;52.404;13.532;2024-01-06T04:47:51;2.10;99.90
52481;DHT22;38393;52.404;13.532;2024-01-06T04:50:17;2.20;99.90
52481;DHT22;38393;52.404;13.532;2024-01-06T04:52:43;2.20;99.90
52481;DHT22;38393;52.404;13.532;2024-01-06T04:55:09;2.00;99.90
52481;DHT22;38393;52.404;13.532;2024-01-06T04:57:35;2.10;99.90
52481;DHT22;38393;52.404;13.532;2024-01-06T05:00:00;2.20;99.90
52481;DHT22;38393;52.404;13.532;2024-01-06T05:02:26;2.10;99.90
52481;DHT22;38393;52.404;13.532;2024-01-06T05:04:52;2.00;99.90
52481;DHT22;38393;52.404;13.532;2024-01-06T05:07:17;2.20;99.90
52481;DHT22;38393;52.404;13.532;2024-01-06T05:09:43;2.10;99.90
52481;DHT22;38393;52.404;13.532;2024-01-06T05:12:08;1.80;99.90
52481;DHT22;38393;52.404;13.532;2024-01-06T05:14:34;2.00;99.90
52481;DHT22;38393;52.404;13.532;2024-01-06T05:16:59;2.00;99.90
52481;DHT22;38393;52.404;13.532;2024-01-06T05:19:25;2.00;99.90
52481;DHT22;38393;52.404;13.532;2024-01-06T05:21:50;2.10;99.90
52481;DHT22;38393;52.404;13.532;2024-01-06T05:24:16;2.10;99.90
52481;DHT22;38393;52.404;13.532;2024-01-06T05:26:41;2.00;99.90
52481;DHT22;38393;52.404;13.532;2024-01-06T05:29:07;2.00;99.90
52481;DHT22;38393;52.404;13.532;2024-01-06T05:31:33;2.00;99.90
52481;DHT22;38393;52.404;13.532;2024-01-06T05:33:58;2.00;99.90
52481;DHT22;38393;52.404;13.532;2024-01-06T05:36:23;1.90;99.90
52481;DHT22;38393;52.404;13.532;2024-01-06T05:38:49;2.00;99.90
52481;DHT22;38393;52.404;13.532;2024-01-06T05:41:15;2.10;99.90
52481;DHT22;38393;52.404;13.532;2024-01-06T05:43:40;2.10;99.90
52481;DHT22;38393;52.404;13.532;2024-01-06T05:46:07;2.00;99.90
52481;DHT22;38393;52.404;13.532;2024-01-06T05:48:32;2.00;99.90
52481;DHT22;38393;52.404;13.532;2024-01-06T05:50:58;1.90;99.90
52481;DHT22;38393;52.404;13.532;2024-01-06T05:53:23;1.90;99.90
52481;DHT22;38393;52.404;13.532;2024-01-06T05:55:49;2.10;99.90
52481;DHT22;38393;52.404;13.532;2024-01-06T05:58:16;2.10;99.90
52481;DHT22;38393;52.404;13.532;2024-01-06T06:00:41;2.00;99.90
52481;DHT22;38393;52.404;13.532;2024-01-06T06:03:06;1.90;99.90
52481;DHT22;38393;52.404;13.532;2024-01-06T06:05:33;2.10;99.90
52481;DHT22;38393;52.404;13.532;2024-01-06T06:07:58;2.00;99.90
52481;DHT22;38393;52.404;13.532;2024-01-06T06:10:24;2.00;99.90
52481;DHT22;38393;52.404;13.532;2024-01-06T06:12:55;1.90;99.90
52481;DHT22;38393;52.404;13.532;2024-01-06T06:15:20;1.90;99.90
52481;DHT22;38393;52.404;13.532;2024-01-06T06:17:46;2.00;99.90
52481;DHT22;38393;52.404;13.532;2024-01-06T06:20:11;2.10;99.90
52481;DHT22;38393;52.404;13.532;2024-01-06T06:22:37;2.10;99.90
52481;DHT22;38393;52.404;13.532;2024-01-06T06:25:03;2.10;99.90
52481;DHT22;38393;52.404;13.532;2024-01-06T06:27:29;2.00;99.90
52481;DHT22;38393;52.404;13.532;2024-01-06T06:29:55;2.10;99.90
52481;DHT22;38393;52.404;13.532;2024-01-06T06:32:21;2.10;99.90
52481;DHT22;38393;52.404;13.532;2024-01-06T06:34:47;2.10;99.90
52481;DHT22;38393;52.404;13.532;2024-01-06T06:37:12;2.10;99.90
52481;DHT22;38393;52.404;13.532;2024-01-06T06:39:38;2.00;99.90
52481;DHT22;38393;52.404;13.532;2024-01-06T06:42:03;2.00;99.90
52481;DHT22;38393;52.404;13.532;2024-01-06T06:44:29;1.90;99.90
52481;DHT22;38393;52.404;13.532;2024-01-06T06:46:55;2.00;99.90
52481;DHT22;38393;52.404;13.532;2024-01-06T06:49:21;2.00;99.90
52481;DHT22;38393;52.404;13.532;2024-01-06T06:51:46;1.90;99.90
52481;DHT22;38393;52.404;13.532;2024-01-06T06:54:14;1.90;99.90
52481;DHT22;38393;52.404;13.532;2024-01-06T06:56:44;1.90;99.90
52481;DHT22;38393;52.404;13.532;2024-01-06T06:59:10;2.00;99.90
52481;DHT22;38393;52.404;13.532;2024-01-06T07:01:35;2.00;99.90
52481;DHT22;38393;52.404;13.532;2024-01-06T07:04:02;1.90;99.90
52481;DHT22;38393;52.404;13.532;2024-01-06T07:06:27;1.80;99.90
52481;DHT22;38393;52.404;13.532;2024-01-06T07:08:54;1.80;99.90
52481;DHT22;38393;52.404;13.532;2024-01-06T07:11:19;1.70;99.90
52481;DHT22;38393;52.404;13.532;2024-01-06T07:13:45;2.00;99.90
52481;DHT22;38393;52.404;13.532;2024-01-06T07:16:10;1.90;99.90
52481;DHT22;38393;52.404;13.532;2024-01-06T07:18:37;1.90;99.90
52481;DHT22;38393;52.404;13.532;2024-01-06T07:21:04;1.80;99.90
52481;DHT22;38393;52.404;13.532;2024-01-06T07:23:31;1.80;99.90
52481;DHT22;38393;52.404;13.532;2024-01-06T07:25:57;1.80;99.90
52481;DHT22;38393;52.404;13.532;2024-01-06T07:28:23;1.90;99.90
52481;DHT22;38393;52.404;13.532;2024-01-06T07:30:48;1.90;99.90
52481;DHT22;38393;52.404;13.532;2024-01-06T07:33:14;1.90;99.90
52481;DHT22;38393;52.404;13.532;2024-01-06T07:35:39;2.00;99.90
52481;DHT22;38393;52.404;13.532;2024-01-06T07:38:09;1.90;99.90
52481;DHT22;38393;52.404;13.532;2024-01-06T07:40:38;1.80;99.90
52481;DHT22;38393;52.404;13.532;2024-01-06T07:43:04;1.90;99.90
52481;DHT22;38393;52.404;13.532;2024-01-06T07:45:30;1.90;99.90
52481;DHT22;38393;52.404;13.532;2024-01-06T07:47:59;1.80;99.90
52481;DHT22;38393;52.404;13.532;2024-01-06T07:50:26;1.80;99.90
52481;DHT22;38393;52.404;13.532;2024-01-06T07:52:51;1.70;99.90
52481;DHT22;38393;52.404;13.532;2024-01-06T07:55:17;1.80;99.90
52481;DHT22;38393;52.404;13.532;2024-01-06T07:57:44;1.80;99.90
52481;DHT22;38393;52.404;13.532;2024-01-06T08:00:11;1.70;99.90
52481;DHT22;38393;52.404;13.532;2024-01-06T08:02:40;1.80;99.90
52481;DHT22;38393;52.404;13.532;2024-01-06T08:05:06;1.70;99.90
52481;DHT22;38393;52.404;13.532;2024-01-06T08:07:32;1.80;99.90
52481;DHT22;38393;52.404;13.532;2024-01-06T08:09:58;1.80;99.90
52481;DHT22;38393;52.404;13.532;2024-01-06T08:12:23;1.90;99.90
52481;DHT22;38393;52.404;13.532;2024-01-06T08:14:49;1.80;99.90
52481;DHT22;38393;52.404;13.532;2024-01-06T08:17:14;1.80;99.90
52481;DHT22;38393;52.404;13.532;2024-01-06T08:19:40;1.70;99.90
52481;DHT22;38393;52.404;13.532;2024-01-06T08:22:07;1.70;99.90
52481;DHT22;38393;52.404;13.532;2024-01-06T08:24:32;1.70;99.90
52481;DHT22;38393;52.404;13.532;2024-01-06T08:26:58;1.70;99.90
52481;DHT22;38393;52.404;13.532;2024-01-06T08:29:24;1.70;99.90
52481;DHT22;38393;52.404;13.532;2024-01-06T08:31:49;1.90;99.90
52481;DHT22;38393;52.404;13.532;2024-01-06T08:34:17;1.70;99.90
52481;DHT22;38393;52.404;13.532;2024-01-06T08:36:43;1.80;99.90
52481;DHT22;38393;52.404;13.532;2024-01-06T08:39:08;1.70;99.90
52481;DHT22;38393;52.404;13.532;2024-01-06T08:41:34;1.80;99.90
52481;DHT22;38393;52.404;13.532;2024-01-06T08:43:59;1.90;99.90
52481;DHT22;38393;52.404;13.532;2024-01-06T08:46:25;1.70;99.90
52481;DHT22;38393;52.404;13.532;2024-01-06T08:48:50;1.50;99.90
52481;DHT22;38393;52.404;13.532;2024-01-06T08:51:16;1.70;99.90
52481;DHT22;38393;52.404;13.532;2024-01-06T08:53:42;1.80;99.90
52481;DHT22;38393;52.404;13.532;2024-01-06T08:56:08;1.90;99.90
52481;DHT22;38393;52.404;13.532;2024-01-06T08:58:33;1.70;99.90
52481;DHT22;38393;52.404;13.532;2024-01-06T09:00:59;1.70;99.90
52481;DHT22;38393;52.404;13.532;2024-01-06T09:03:25;1.80;99.90
52481;DHT22;38393;52.404;13.532;2024-01-06T09:05:52;1.70;99.90
52481;DHT22;38393;52.404;13.532;2024-01-06T09:08:18;1.70;99.90
52481;DHT22;38393;52.404;13.532;2024-01-06T09:10:43;1.60;99.90
52481;DHT22;38393;52.404;13.532;2024-01-06T09:13:09;1.60;99.90
52481;DHT22;38393;52.404;13.532;2024-01-06T09:15:35;1.70;99.90
52481;DHT22;38393;52.404;13.532;2024-01-06T09:18:01;1.70;99.90
52481;DHT22;38393;52.404;13.532;2024-01-06T09:20:28;1.80;99.90
52481;DHT22;38393;52.404;13.532;2024-01-06T09:22:53;1.70;99.90
52481;DHT22;38393;52.404;13.532;2024-01-06T09:25:19;1.70;99.90
52481;DHT22;38393;52.404;13.532;2024-01-06T09:27:44;1.70;99.90
52481;DHT22;38393;52.404;13.532;2024-01-06T09:30:10;1.70;99.90
52481;DHT22;38393;52.404;13.532;2024-01-06T09:32:36;1.80;99.90
52481;DHT22;38393;52.404;13.532;2024-01-06T09:35:02;1.60;99.90
52481;DHT22;38393;52.404;13.532;2024-01-06T09:37:28;1.60;99.90
52481;DHT22;38393;52.404;13.532;2024-01-06T09:39:54;1.50;99.90
52481;DHT22;38393;52.404;13.532;2024-01-06T09:42:19;1.50;99.90
52481;DHT22;38393;52.404;13.532;2024-01-06T09:44:45;1.50;99.90
52481;DHT22;38393;52.404;13.532;2024-01-06T09:47:12;1.50;99.90
52481;DHT22;38393;52.404;13.532;2024-01-06T09:49:38;1.50;99.90
52481;DHT22;38393;52.404;13.532;2024-01-06T09:52:13;1.60;99.90
52481;DHT22;38393;52.404;13.532;2024-01-06T09:54:49;1.50;99.90
52481;DHT22;38393;52.404;13.532;2024-01-06T09:57:16;1.40;99.90
52481;DHT22;38393;52.404;13.532;2024-01-06T09:59:44;1.40;99.90
52481;DHT22;38393;52.404;13.532;2024-01-06T10:02:11;1.40;99.90
52481;DHT22;38393;52.404;13.532;2024-01-06T10:04:39;1.40;99.90
52481;DHT22;38393;52.404;13.532;2024-01-06T10:07:04;1.30;99.90
52481;DHT22;38393;52.404;13.532;2024-01-06T10:09:30;1.50;99.90
52481;DHT22;38393;52.404;13.532;2024-01-06T10:11:56;1.50;99.90
52481;DHT22;38393;52.404;13.532;2024-01-06T10:14:23;1.40;99.90
52481;DHT22;38393;52.404;13.532;2024-01-06T10:16:50;1.40;99.90
52481;DHT22;38393;52.404;13.532;2024-01-06T10:19:16;1.50;99.90
52481;DHT22;38393;52.404;13.532;2024-01-06T10:21:41;1.50;99.90
52481;DHT22;38393;52.404;13.532;2024-01-06T10:24:08;1.50;99.90
52481;DHT22;38393;52.404;13.532;2024-01-06T10:26:34;1.50;99.90
52481;DHT22;38393;52.404;13.532;2024-01-06T10:28:59;1.40;99.90
52481;DHT22;38393;52.404;13.532;2024-01-06T10:31:25;1.50;99.90
52481;DHT22;38393;52.404;13.532;2024-01-06T10:33:51;1.50;99.90
52481;DHT22;38393;52.404;13.532;2024-01-06T10:36:17;1.50;99.90
52481;DHT22;38393;52.404;13.532;2024-01-06T10:38:44;1.60;99.90
52481;DHT22;38393;52.404;13.532;2024-01-06T10:41:11;1.50;99.90
52481;DHT22;38393;52.404;13.532;2024-01-06T10:43:37;1.40;99.90
52481;DHT22;38393;52.404;13.532;2024-01-06T10:46:07;1.40;99.90
52481;DHT22;38393;52.404;13.532;2024-01-06T10:48:36;1.50;99.90
52481;DHT22;38393;52.404;13.532;2024-01-06T10:51:04;1.40;99.90
52481;DHT22;38393;52.404;13.532;2024-01-06T10:53:33;1.50;99.90
52481;DHT22;38393;52.404;13.532;2024-01-06T10:56:01;1.40;99.90
52481;DHT22;38393;52.404;13.532;2024-01-06T10:58:27;1.30;99.90
52481;DHT22;38393;52.404;13.532;2024-01-06T11:00:56;1.30;99.90
52481;DHT22;38393;52.404;13.532;2024-01-06T11:03:22;1.40;99.90
52481;DHT22;38393;52.404;13.532;2024-01-06T11:05:47;1.50;99.90
52481;DHT22;38393;52.404;13.532;2024-01-06T11:08:17;1.50;99.90
52481;DHT22;38393;52.404;13.532;2024-01-06T11:10:43;1.50;99.90
52481;DHT22;38393;52.404;13.532;2024-01-06T11:13:12;1.50;99.90
52481;DHT22;38393;52.404;13.532;2024-01-06T11:15:48;1.60;99.90
52481;DHT22;38393;52.404;13.532;2024-01-06T11:18:33;1.30;99.90
52481;DHT22;38393;52.404;13.532;2024-01-06T11:23:37;1.50;99.90
52481;DHT22;38393;52.404;13.532;2024-01-06T11:26:03;1.20;99.90
52481;DHT22;38393;52.404;13.532;2024-01-06T11:28:28;1.40;99.90
52481;DHT22;38393;52.404;13.532;2024-01-06T11:31:09;1.30;99.90
52481;DHT22;38393;52.404;13.532;2024-01-06T11:33:45;1.40;99.90
52481;DHT22;38393;52.404;13.532;2024-01-06T11:36:16;1.40;99.90
52481;DHT22;38393;52.404;13.532;2024-01-06T11:38:42;1.50;99.90
52481;DHT22;38393;52.404;13.532;2024-01-06T11:41:50;1.50;99.90
52481;DHT22;38393;52.404;13.532;2024-01-06T11:44:20;1.60;99.90
52481;DHT22;38393;52.404;13.532;2024-01-06T11:46:47;1.40;99.90
52481;DHT22;38393;52.404;13.532;2024-01-06T11:49:15;1.60;99.90
52481;DHT22;38393;52.404;13.532;2024-01-06T11:51:41;1.40;99.90
52481;DHT22;38393;52.404;13.532;2024-01-06T11:54:07;1.40;99.90
52481;DHT22;38393;52.404;13.532;2024-01-06T11:56:33;1.40;99.90
52481;DHT22;38393;52.404;13.532;2024-01-06T11:58:59;1.30;99.90
52481;DHT22;38393;52.404;13.532;2024-01-06T12:01:26;1.40;99.90
52481;DHT22;38393;52.404;13.532;2024-01-06T12:03:54;1.40;99.90
52481;DHT22;38393;52.404;13.532;2024-01-06T12:06:20;1.30;99.90
52481;DHT22;38393;52.404;13.532;2024-01-06T12:08:49;1.40;99.90
52481;DHT22;38393;52.404;13.532;2024-01-06T12:11:17;1.50;99.90
52481;DHT22;38393;52.404;13.532;2024-01-06T12:13:44;1.60;99.90
52481;DHT22;38393;52.404;13.532;2024-01-06T12:16:09;1.40;99.90
52481;DHT22;38393;52.404;13.532;2024-01-06T12:18:35;1.30;99.90
52481;DHT22;38393;52.404;13.532;2024-01-06T12:21:00;1.50;99.90
52481;DHT22;38393;52.404;13.532;2024-01-06T12:23:29;1.40;99.90
52481;DHT22;38393;52.404;13.532;2024-01-06T12:25:55;1.60;99.90
52481;DHT22;38393;52.404;13.532;2024-01-06T12:28:21;1.40;99.90
52481;DHT22;38393;52.404;13.532;2024-01-06T12:30:46;1.30;99.90
52481;DHT22;38393;52.404;13.532;2024-01-06T12:33:12;1.40;99.90
52481;DHT22;38393;52.404;13.532;2024-01-06T12:35:39;1.30;99.90
52481;DHT22;38393;52.404;13.532;2024-01-06T12:38:04;1.30;99.90
52481;DHT22;38393;52.404;13.532;2024-01-06T12:40:31;1.30;99.90
52481;DHT22;38393;52.404;13.532;2024-01-06T12:42:57;1.20;99.90
52481;DHT22;38393;52.404;13.532;2024-01-06T12:45:22;1.20;99.90
52481;DHT22;38393;52.404;13.532;2024-01-06T12:47:48;1.10;99.90
52481;DHT22;38393;52.404;13.532;2024-01-06T12:50:13;1.20;99.90
52481;DHT22;38393;52.404;13.532;2024-01-06T12:52:39;1.30;99.90
52481;DHT22;38393;52.404;13.532;2024-01-06T12:55:06;1.30;99.90
52481;DHT22;38393;52.404;13.532;2024-01-06T12:57:32;1.30;99.90
52481;DHT22;38393;52.404;13.532;2024-01-06T12:59:57;1.30;99.90
52481;DHT22;38393;52.404;13.532;2024-01-06T13:02:23;1.30;99.90
52481;DHT22;38393;52.404;13.532;2024-01-06T13:04:48;1.30;99.90
52481;DHT22;38393;52.404;13.532;2024-01-06T13:07:14;1.10;99.90
52481;DHT22;38393;52.404;13.532;2024-01-06T13:09:39;1.10;99.90
52481;DHT22;38393;52.404;13.532;2024-01-06T13:12:05;1.10;99.90
52481;DHT22;38393;52.404;13.532;2024-01-06T13:14:31;1.10;99.90
52481;DHT22;38393;52.404;13.532;2024-01-06T13:16:57;1.10;99.90
52481;DHT22;38393;52.404;13.532;2024-01-06T13:19:23;1.10;99.90
52481;DHT22;38393;52.404;13.532;2024-01-06T13:21:49;1.00;99.90
52481;DHT22;38393;52.404;13.532;2024-01-06T13:24:14;1.00;99.90
52481;DHT22;38393;52.404;13.532;2024-01-06T13:26:40;0.90;99.90
52481;DHT22;38393;52.404;13.532;2024-01-06T13:29:06;0.90;99.90
52481;DHT22;38393;52.404;13.532;2024-01-06T13:31:32;1.10;99.90
52481;DHT22;38393;52.404;13.532;2024-01-06T13:33:58;1.10;99.90
52481;DHT22;38393;52.404;13.532;2024-01-06T13:36:23;1.30;99.90
52481;DHT22;38393;52.404;13.532;2024-01-06T13:38:49;1.00;99.90
52481;DHT22;38393;52.404;13.532;2024-01-06T13:41:15;1.10;99.90
52481;DHT22;38393;52.404;13.532;2024-01-06T13:43:41;1.00;99.90
52481;DHT22;38393;52.404;13.532;2024-01-06T13:46:06;0.90;99.90
52481;DHT22;38393;52.404;13.532;2024-01-06T13:48:32;1.00;99.90
52481;DHT22;38393;52.404;13.532;2024-01-06T13:50:58;1.00;99.90
52481;DHT22;38393;52.404;13.532;2024-01-06T13:53:24;1.10;99.90
52481;DHT22;38393;52.404;13.532;2024-01-06T13:55:50;1.10;99.90
52481;DHT22;38393;52.404;13.532;2024-01-06T13:58:15;0.90;99.90
52481;DHT22;38393;52.404;13.532;2024-01-06T14:00:42;0.90;99.90
52481;DHT22;38393;52.404;13.532;2024-01-06T14:03:08;1.10;99.90
52481;DHT22;38393;52.404;13.532;2024-01-06T14:05:33;1.00;99.90
52481;DHT22;38393;52.404;13.532;2024-01-06T14:07:59;1.00;99.90
52481;DHT22;38393;52.404;13.532;2024-01-06T14:10:24;0.90;99.90
52481;DHT22;38393;52.404;13.532;2024-01-06T14:12:50;1.00;99.90
52481;DHT22;38393;52.404;13.532;2024-01-06T14:15:15;1.10;99.90
52481;DHT22;38393;52.404;13.532;2024-01-06T14:17:41;1.00;99.90
52481;DHT22;38393;52.404;13.532;2024-01-06T14:20:07;1.00;99.90
52481;DHT22;38393;52.404;13.532;2024-01-06T14:22:34;0.90;99.90
52481;DHT22;38393;52.404;13.532;2024-01-06T14:25:00;0.80;99.90
52481;DHT22;38393;52.404;13.532;2024-01-06T14:27:25;0.80;99.90
52481;DHT22;38393;52.404;13.532;2024-01-06T14:29:51;0.90;99.90
52481;DHT22;38393;52.404;13.532;2024-01-06T14:32:21;1.00;99.90
52481;DHT22;38393;52.404;13.532;2024-01-06T14:34:46;0.80;99.90
52481;DHT22;38393;52.404;13.532;2024-01-06T14:37:11;0.90;99.90
52481;DHT22;38393;52.404;13.532;2024-01-06T14:39:37;0.90;99.90
52481;DHT22;38393;52.404;13.532;2024-01-06T14:42:02;0.90;99.90
52481;DHT22;38393;52.404;13.532;2024-01-06T14:44:28;1.00;99.90
52481;DHT22;38393;52.404;13.532;2024-01-06T14:46:55;0.90;99.90
52481;DHT22;38393;52.404;13.532;2024-01-06T14:49:20;0.90;99.90
52481;DHT22;38393;52.404;13.532;2024-01-06T14:51:46;1.00;99.90
52481;DHT22;38393;52.404;13.532;2024-01-06T14:54:11;1.00;99.90
52481;DHT22;38393;52.404;13.532;2024-01-06T14:56:37;0.80;99.90
52481;DHT22;38393;52.404;13.532;2024-01-06T14:59:04;1.00;99.90
52481;DHT22;38393;52.404;13.532;2024-01-06T15:01:29;0.90;99.90
52481;DHT22;38393;52.404;13.532;2024-01-06T15:03:54;0.90;99.90
52481;DHT22;38393;52.404;13.532;2024-01-06T15:06:20;0.90;99.90
52481;DHT22;38393;52.404;13.532;2024-01-06T15:08:45;0.90;99.90
52481;DHT22;38393;52.404;13.532;2024-01-06T15:11:11;0.90;99.90
52481;DHT22;38393;52.404;13.532;2024-01-06T15:13:36;0.80;99.90
52481;DHT22;38393;52.404;13.532;2024-01-06T15:16:02;1.00;99.90
52481;DHT22;38393;52.404;13.532;2024-01-06T15:18:28;1.10;99.90
52481;DHT22;38393;52.404;13.532;2024-01-06T15:20:54;1.00;99.90
52481;DHT22;38393;52.404;13.532;2024-01-06T15:23:19;1.00;99.90
52481;DHT22;38393;52.404;13.532;2024-01-06T15:25:45;0.90;99.90